sensor_id;sensor_type;location;lat;lon;timestamp;temperature;humidity
810;DHT22;387;48.772;9.186;2023-07-09T00:00:47;23.90;65.10
810;DHT22;387;48.772;9.186;2023-07-09T00:03:14;23.90;65.30
810;DHT22;387;48.772;9.186;2023-07-09T00:05:41;23.90;65.30
810;DHT22;387;48.772;9.186;2023-07-09T00:08:25;24.00;64.80
810;DHT22;387;48.772;9.186;2023-07-09T00:10:53;24.00;64.50
810;DHT22;387;48.772;9.186;2023-07-09T00:13:19;24.00;64.50
810;DHT22;387;48.772;9.186;2023-07-09T00:15:45;24.00;64.70
810;DHT22;387;48.772;9.186;2023-07-09T00:18:10;24.00;64.70
810;DHT22;387;48.772;9.186;2023-07-09T00:20:36;24.10;64.50
810;DHT22;387;48.772;9.186;2023-07-09T00:23:02;24.00;64.70
810;DHT22;387;48.772;9.186;2023-07-09T00:25:30;24.00;64.70
810;DHT22;387;48.772;9.186;2023-07-09T00:27:56;24.00;65.10
810;DHT22;387;48.772;9.186;2023-07-09T00:30:23;23.90;65.40
810;DHT22;387;48.772;9.186;2023-07-09T00:32:50;23.70;65.70
810;DHT22;387;48.772;9.186;2023-07-09T00:35:17;23.60;66.00
810;DHT22;387;48.772;9.186;2023-07-09T00:37:44;23.50;66.10
810;DHT22;387;48.772;9.186;2023-07-09T00:40:17;23.50;66.60
810;DHT22;387;48.772;9.186;2023-07-09T00:42:48;23.40;66.60
810;DHT22;387;48.772;9.186;2023-07-09T00:45:20;23.30;66.60
810;DHT22;387;48.772;9.186;2023-07-09T00:47:59;23.30;66.60
810;DHT22;387;48.772;9.186;2023-07-09T00:50:42;23.30;66.60
810;DHT22;387;48.772;9.186;2023-07-09T00:53:20;23.30;66.60
810;DHT22;387;48.772;9.186;2023-07-09T00:56:01;23.20;66.60
810;DHT22;387;48.772;9.186;2023-07-09T00:58:30;23.20;66.70
810;DHT22;387;48.772;9.186;2023-07-09T01:01:03;23.20;66.70
810;DHT22;387;48.772;9.186;2023-07-09T01:03:40;23.20;67.00
810;DHT22;387;48.772;9.186;2023-07-09T01:06:09;23.20;66.90
810;DHT22;387;48.772;9.186;2023-07-09T01:08:37;23.10;66.90
810;DHT22;387;48.772;9.186;2023-07-09T01:11:15;23.10;66.90
810;DHT22;387;48.772;9.186;2023-07-09T01:13:49;23.10;66.90
810;DHT22;387;48.772;9.186;2023-07-09T01:16:17;23.10;67.30
810;DHT22;387;48.772;9.186;2023-07-09T01:18:43;23.10;67.30
810;DHT22;387;48.772;9.186;2023-07-09T01:21:10;23.10;67.30
810;DHT22;387;48.772;9.186;2023-07-09T01:23:46;23.20;67.20
810;DHT22;387;48.772;9.186;2023-07-09T01:26:14;23.20;67.20
810;DHT22;387;48.772;9.186;2023-07-09T01:28:40;23.10;67.20
810;DHT22;387;48.772;9.186;2023-07-09T01:31:13;23.10;67.20
810;DHT22;387;48.772;9.186;2023-07-09T01:33:41;23.00;67.30
810;DHT22;387;48.772;9.186;2023-07-09T01:36:12;22.80;67.90
810;DHT22;387;48.772;9.186;2023-07-09T01:38:39;22.50;68.30
810;DHT22;387;48.772;9.186;2023-07-09T01:41:05;22.30;68.80
810;DHT22;387;48.772;9.186;2023-07-09T01:43:32;22.20;68.90
810;DHT22;387;48.772;9.186;2023-07-09T01:45:58;22.20;68.90
810;DHT22;387;48.772;9.186;2023-07-09T01:48:25;22.20;68.90
810;DHT22;387;48.772;9.186;2023-07-09T01:50:52;22.20;68.90
810;DHT22;387;48.772;9.186;2023-07-09T01:53:20;22.20;68.90
810;DHT22;387;48.772;9.186;2023-07-09T01:55:52;22.10;69.10
810;DHT22;387;48.772;9.186;2023-07-09T01:58:19;22.20;69.10
810;DHT22;387;48.772;9.186;2023-07-09T02:00:50;22.20;68.80
810;DHT22;387;48.772;9.186;2023-07-09T02:03:16;22.20;68.90
810;DHT22;387;48.772;9.186;2023-07-09T02:05:43;22.10;69.10
810;DHT22;387;48.772;9.186;2023-07-09T02:08:09;22.00;69.40
810;DHT22;387;48.772;9.186;2023-07-09T02:10:34;22.00;69.40
810;DHT22;387;48.772;9.186;2023-07-09T02:13:00;22.10;69.10
810;DHT22;387;48.772;9.186;2023-07-09T02:15:26;22.10;68.80
810;DHT22;387;48.772;9.186;2023-07-09T02:17:52;22.10;68.60
810;DHT22;387;48.772;9.186;2023-07-09T02:20:18;22.10;68.80
810;DHT22;387;48.772;9.186;2023-07-09T02:22:44;22.10;69.10
810;DHT22;387;48.772;9.186;2023-07-09T02:25:10;22.20;68.90
810;DHT22;387;48.772;9.186;2023-07-09T02:27:37;22.20;68.90
810;DHT22;387;48.772;9.186;2023-07-09T02:30:04;22.20;68.90
810;DHT22;387;48.772;9.186;2023-07-09T02:32:30;22.20;68.90
810;DHT22;387;48.772;9.186;2023-07-09T02:34:56;22.30;68.80
810;DHT22;387;48.772;9.186;2023-07-09T02:37:23;22.30;68.60
810;DHT22;387;48.772;9.186;2023-07-09T02:39:50;22.20;68.80
810;DHT22;387;48.772;9.186;2023-07-09T02:42:18;22.10;69.20
810;DHT22;387;48.772;9.186;2023-07-09T02:44:44;21.90;69.40
810;DHT22;387;48.772;9.186;2023-07-09T02:47:12;21.70;69.50
810;DHT22;387;48.772;9.186;2023-07-09T02:49:38;21.70;69.40
810;DHT22;387;48.772;9.186;2023-07-09T02:52:04;21.70;69.50
810;DHT22;387;48.772;9.186;2023-07-09T02:54:30;21.70;69.50
810;DHT22;387;48.772;9.186;2023-07-09T02:56:56;21.80;69.50
810;DHT22;387;48.772;9.186;2023-07-09T02:59:21;21.90;69.20
810;DHT22;387;48.772;9.186;2023-07-09T03:01:47;21.90;69.10
810;DHT22;387;48.772;9.186;2023-07-09T03:04:16;21.90;69.20
810;DHT22;387;48.772;9.186;2023-07-09T03:06:42;21.90;69.20
810;DHT22;387;48.772;9.186;2023-07-09T03:09:08;22.00;69.20
810;DHT22;387;48.772;9.186;2023-07-09T03:11:35;22.00;69.10
810;DHT22;387;48.772;9.186;2023-07-09T03:14:01;22.00;69.20
810;DHT22;387;48.772;9.186;2023-07-09T03:16:28;21.90;69.40
810;DHT22;387;48.772;9.186;2023-07-09T03:18:56;22.10;69.20
810;DHT22;387;48.772;9.186;2023-07-09T03:21:23;22.10;69.10
810;DHT22;387;48.772;9.186;2023-07-09T03:23:49;22.10;68.60
810;DHT22;387;48.772;9.186;2023-07-09T03:26:14;22.00;69.20
810;DHT22;387;48.772;9.186;2023-07-09T03:28:40;21.90;69.20
810;DHT22;387;48.772;9.186;2023-07-09T03:31:06;21.90;69.20
810;DHT22;387;48.772;9.186;2023-07-09T03:33:32;21.80;69.40
810;DHT22;387;48.772;9.186;2023-07-09T03:35:57;21.80;69.50
810;DHT22;387;48.772;9.186;2023-07-09T03:38:23;21.70;69.50
810;DHT22;387;48.772;9.186;2023-07-09T03:40:55;21.70;69.50
810;DHT22;387;48.772;9.186;2023-07-09T03:43:21;21.60;69.50
810;DHT22;387;48.772;9.186;2023-07-09T03:45:48;21.60;69.50
810;DHT22;387;48.772;9.186;2023-07-09T03:48:15;21.60;69.50
810;DHT22;387;48.772;9.186;2023-07-09T03:50:42;21.70;69.40
810;DHT22;387;48.772;9.186;2023-07-09T03:53:08;21.60;69.40
810;DHT22;387;48.772;9.186;2023-07-09T03:55:34;21.60;69.50
810;DHT22;387;48.772;9.186;2023-07-09T03:58:00;21.60;69.40
810;DHT22;387;48.772;9.186;2023-07-09T04:00:28;21.70;69.40
810;DHT22;387;48.772;9.186;2023-07-09T04:02:53;21.80;69.20
810;DHT22;387;48.772;9.186;2023-07-09T04:05:22;21.80;68.90
810;DHT22;387;48.772;9.186;2023-07-09T04:07:48;21.80;69.10
810;DHT22;387;48.772;9.186;2023-07-09T04:10:14;21.80;69.10
810;DHT22;387;48.772;9.186;2023-07-09T04:12:40;21.80;69.20
810;DHT22;387;48.772;9.186;2023-07-09T04:15:06;21.90;69.10
810;DHT22;387;48.772;9.186;2023-07-09T04:17:32;21.90;69.10
810;DHT22;387;48.772;9.186;2023-07-09T04:19:58;21.80;69.20
810;DHT22;387;48.772;9.186;2023-07-09T04:22:24;21.80;69.40
810;DHT22;387;48.772;9.186;2023-07-09T04:24:49;21.70;69.40
810;DHT22;387;48.772;9.186;2023-07-09T04:27:17;21.80;69.20
810;DHT22;387;48.772;9.186;2023-07-09T04:29:43;21.80;69.40
810;DHT22;387;48.772;9.186;2023-07-09T04:32:13;21.80;69.40
810;DHT22;387;48.772;9.186;2023-07-09T04:34:39;21.80;69.40
810;DHT22;387;48.772;9.186;2023-07-09T04:37:10;21.90;69.20
810;DHT22;387;48.772;9.186;2023-07-09T04:39:37;22.00;69.10
810;DHT22;387;48.772;9.186;2023-07-09T04:42:02;22.00;69.20
810;DHT22;387;48.772;9.186;2023-07-09T04:44:28;21.90;69.40
810;DHT22;387;48.772;9.186;2023-07-09T04:46:54;21.80;69.40
810;DHT22;387;48.772;9.186;2023-07-09T04:49:20;21.70;69.50
810;DHT22;387;48.772;9.186;2023-07-09T04:51:45;21.70;69.50
810;DHT22;387;48.772;9.186;2023-07-09T04:54:11;21.80;69.70
810;DHT22;387;48.772;9.186;2023-07-09T04:56:39;21.80;69.40
810;DHT22;387;48.772;9.186;2023-07-09T04:59:05;21.80;69.50
810;DHT22;387;48.772;9.186;2023-07-09T05:01:30;21.90;69.20
810;DHT22;387;48.772;9.186;2023-07-09T05:03:56;22.00;69.40
810;DHT22;387;48.772;9.186;2023-07-09T05:06:21;22.00;69.40
810;DHT22;387;48.772;9.186;2023-07-09T05:08:48;22.00;69.20
810;DHT22;387;48.772;9.186;2023-07-09T05:11:14;22.00;69.20
810;DHT22;387;48.772;9.186;2023-07-09T05:13:40;22.00;69.40
810;DHT22;387;48.772;9.186;2023-07-09T05:16:06;22.10;69.40
810;DHT22;387;48.772;9.186;2023-07-09T05:18:32;22.10;68.90
810;DHT22;387;48.772;9.186;2023-07-09T05:20:57;22.20;69.10
810;DHT22;387;48.772;9.186;2023-07-09T05:23:25;22.30;69.10
810;DHT22;387;48.772;9.186;2023-07-09T05:26:01;22.40;68.90
810;DHT22;387;48.772;9.186;2023-07-09T05:28:27;22.40;68.90
810;DHT22;387;48.772;9.186;2023-07-09T05:30:53;22.50;68.90
810;DHT22;387;48.772;9.186;2023-07-09T05:33:19;22.70;68.90
810;DHT22;387;48.772;9.186;2023-07-09T05:35:45;22.70;68.60
810;DHT22;387;48.772;9.186;2023-07-09T05:38:12;22.90;68.30
810;DHT22;387;48.772;9.186;2023-07-09T05:40:38;23.00;68.20
810;DHT22;387;48.772;9.186;2023-07-09T05:43:04;23.10;68.00
810;DHT22;387;48.772;9.186;2023-07-09T05:45:30;23.20;67.90
810;DHT22;387;48.772;9.186;2023-07-09T05:47:58;23.30;67.50
810;DHT22;387;48.772;9.186;2023-07-09T05:50:24;23.40;67.20
810;DHT22;387;48.772;9.186;2023-07-09T05:52:50;23.50;66.70
810;DHT22;387;48.772;9.186;2023-07-09T05:55:15;23.60;66.70
810;DHT22;387;48.772;9.186;2023-07-09T05:57:41;23.70;66.40
810;DHT22;387;48.772;9.186;2023-07-09T06:00:07;23.80;66.40
810;DHT22;387;48.772;9.186;2023-07-09T06:02:33;23.60;66.60
810;DHT22;387;48.772;9.186;2023-07-09T06:04:59;23.70;66.70
810;DHT22;387;48.772;9.186;2023-07-09T06:07:24;23.90;66.60
810;DHT22;387;48.772;9.186;2023-07-09T06:09:50;24.00;66.30
810;DHT22;387;48.772;9.186;2023-07-09T06:12:15;24.10;65.70
810;DHT22;387;48.772;9.186;2023-07-09T06:14:44;24.30;64.80
810;DHT22;387;48.772;9.186;2023-07-09T06:17:09;24.40;64.80
810;DHT22;387;48.772;9.186;2023-07-09T06:19:35;24.50;64.50
810;DHT22;387;48.772;9.186;2023-07-09T06:22:00;24.60;64.50
810;DHT22;387;48.772;9.186;2023-07-09T06:24:26;24.70;64.10
810;DHT22;387;48.772;9.186;2023-07-09T06:26:52;24.80;63.80
810;DHT22;387;48.772;9.186;2023-07-09T06:29:17;24.90;63.50
810;DHT22;387;48.772;9.186;2023-07-09T06:31:43;24.80;64.20
810;DHT22;387;48.772;9.186;2023-07-09T06:34:09;24.80;64.50
810;DHT22;387;48.772;9.186;2023-07-09T06:36:35;24.90;64.40
810;DHT22;387;48.772;9.186;2023-07-09T06:39:02;25.00;63.90
810;DHT22;387;48.772;9.186;2023-07-09T06:41:27;25.00;63.80
810;DHT22;387;48.772;9.186;2023-07-09T06:43:53;25.20;63.70
810;DHT22;387;48.772;9.186;2023-07-09T06:46:19;25.30;63.40
810;DHT22;387;48.772;9.186;2023-07-09T06:48:46;25.30;63.20
810;DHT22;387;48.772;9.186;2023-07-09T06:51:12;25.30;63.50
810;DHT22;387;48.772;9.186;2023-07-09T06:53:37;25.50;63.20
810;DHT22;387;48.772;9.186;2023-07-09T06:56:05;25.60;62.80
810;DHT22;387;48.772;9.186;2023-07-09T06:58:32;25.80;62.20
810;DHT22;387;48.772;9.186;2023-07-09T07:01:01;25.80;62.20
810;DHT22;387;48.772;9.186;2023-07-09T07:03:32;25.80;62.30
810;DHT22;387;48.772;9.186;2023-07-09T07:05:58;25.90;61.90
810;DHT22;387;48.772;9.186;2023-07-09T07:08:25;26.00;61.90
810;DHT22;387;48.772;9.186;2023-07-09T07:10:55;26.10;61.70
810;DHT22;387;48.772;9.186;2023-07-09T07:13:32;26.20;61.70
810;DHT22;387;48.772;9.186;2023-07-09T07:15:58;26.20;61.90
810;DHT22;387;48.772;9.186;2023-07-09T07:18:24;26.20;61.30
810;DHT22;387;48.772;9.186;2023-07-09T07:20:50;26.30;61.30
810;DHT22;387;48.772;9.186;2023-07-09T07:23:17;26.40;60.70
810;DHT22;387;48.772;9.186;2023-07-09T07:25:44;26.50;60.40
810;DHT22;387;48.772;9.186;2023-07-09T07:28:09;26.60;59.90
810;DHT22;387;48.772;9.186;2023-07-09T07:30:35;26.80;59.70
810;DHT22;387;48.772;9.186;2023-07-09T07:33:01;26.80;59.30
810;DHT22;387;48.772;9.186;2023-07-09T07:35:26;26.90;59.90
810;DHT22;387;48.772;9.186;2023-07-09T07:37:52;27.00;60.10
810;DHT22;387;48.772;9.186;2023-07-09T07:40:17;27.10;60.30
810;DHT22;387;48.772;9.186;2023-07-09T07:42:43;27.20;59.30
810;DHT22;387;48.772;9.186;2023-07-09T07:45:09;27.30;59.10
810;DHT22;387;48.772;9.186;2023-07-09T07:47:35;27.40;58.70
810;DHT22;387;48.772;9.186;2023-07-09T07:50:01;27.50;58.50
810;DHT22;387;48.772;9.186;2023-07-09T07:52:27;27.60;57.40
810;DHT22;387;48.772;9.186;2023-07-09T07:54:53;27.60;57.40
810;DHT22;387;48.772;9.186;2023-07-09T07:57:19;27.80;56.40
810;DHT22;387;48.772;9.186;2023-07-09T07:59:45;28.00;56.20
810;DHT22;387;48.772;9.186;2023-07-09T08:02:13;28.10;56.40
810;DHT22;387;48.772;9.186;2023-07-09T08:04:40;28.10;57.00
810;DHT22;387;48.772;9.186;2023-07-09T08:07:07;28.20;56.10
810;DHT22;387;48.772;9.186;2023-07-09T08:09:34;28.40;55.20
810;DHT22;387;48.772;9.186;2023-07-09T08:12:00;28.50;55.30
810;DHT22;387;48.772;9.186;2023-07-09T08:14:26;28.60;55.60
810;DHT22;387;48.772;9.186;2023-07-09T08:16:52;28.70;55.20
810;DHT22;387;48.772;9.186;2023-07-09T08:19:20;28.60;55.00
810;DHT22;387;48.772;9.186;2023-07-09T08:21:46;28.70;54.50
810;DHT22;387;48.772;9.186;2023-07-09T08:24:13;28.80;54.00
810;DHT22;387;48.772;9.186;2023-07-09T08:26:39;28.90;53.80
810;DHT22;387;48.772;9.186;2023-07-09T08:29:05;28.90;53.00
810;DHT22;387;48.772;9.186;2023-07-09T08:31:31;29.00;52.50
810;DHT22;387;48.772;9.186;2023-07-09T08:33:57;29.10;52.60
810;DHT22;387;48.772;9.186;2023-07-09T08:36:23;29.10;53.40
810;DHT22;387;48.772;9.186;2023-07-09T08:38:49;29.00;53.60
810;DHT22;387;48.772;9.186;2023-07-09T08:47:18;29.20;53.30
810;DHT22;387;48.772;9.186;2023-07-09T08:49:58;29.20;53.00
810;DHT22;387;48.772;9.186;2023-07-09T08:52:37;29.20;53.30
810;DHT22;387;48.772;9.186;2023-07-09T08:55:25;29.30;53.30
810;DHT22;387;48.772;9.186;2023-07-09T08:57:59;29.50;54.00
810;DHT22;387;48.772;9.186;2023-07-09T09:00:31;29.60;53.80
810;DHT22;387;48.772;9.186;2023-07-09T09:03:17;29.60;54.00
810;DHT22;387;48.772;9.186;2023-07-09T09:05:49;29.70;53.60
810;DHT22;387;48.772;9.186;2023-07-09T09:11:21;29.60;53.20
810;DHT22;387;48.772;9.186;2023-07-09T09:13:52;29.80;52.90
810;DHT22;387;48.772;9.186;2023-07-09T09:16:31;30.00;52.20
810;DHT22;387;48.772;9.186;2023-07-09T09:21:35;30.10;51.60
810;DHT22;387;48.772;9.186;2023-07-09T09:27:08;30.40;50.70
810;DHT22;387;48.772;9.186;2023-07-09T09:29:34;30.60;50.10
810;DHT22;387;48.772;9.186;2023-07-09T09:32:21;30.60;49.90
810;DHT22;387;48.772;9.186;2023-07-09T09:34:48;30.70;49.40
810;DHT22;387;48.772;9.186;2023-07-09T09:37:29;30.80;48.90
810;DHT22;387;48.772;9.186;2023-07-09T09:39:56;30.90;49.00
810;DHT22;387;48.772;9.186;2023-07-09T09:42:24;30.80;49.40
810;DHT22;387;48.772;9.186;2023-07-09T09:44:54;30.90;49.00
810;DHT22;387;48.772;9.186;2023-07-09T09:47:20;31.00;49.00
810;DHT22;387;48.772;9.186;2023-07-09T09:49:45;31.00;47.90
810;DHT22;387;48.772;9.186;2023-07-09T09:52:13;30.90;47.70
810;DHT22;387;48.772;9.186;2023-07-09T09:54:41;30.80;47.90
810;DHT22;387;48.772;9.186;2023-07-09T09:57:24;31.00;47.50
810;DHT22;387;48.772;9.186;2023-07-09T09:59:50;30.90;46.30
810;DHT22;387;48.772;9.186;2023-07-09T10:02:23;30.90;45.40
810;DHT22;387;48.772;9.186;2023-07-09T10:04:50;31.10;45.00
810;DHT22;387;48.772;9.186;2023-07-09T10:07:29;31.30;43.50
810;DHT22;387;48.772;9.186;2023-07-09T10:09:55;31.60;41.40
810;DHT22;387;48.772;9.186;2023-07-09T10:18:07;32.50;35.90
810;DHT22;387;48.772;9.186;2023-07-09T10:20:47;33.10;34.80
810;DHT22;387;48.772;9.186;2023-07-09T10:23:28;33.40;34.90
810;DHT22;387;48.772;9.186;2023-07-09T10:26:23;33.70;34.80
810;DHT22;387;48.772;9.186;2023-07-09T10:29:00;34.00;33.10
810;DHT22;387;48.772;9.186;2023-07-09T10:31:50;34.10;32.40
810;DHT22;387;48.772;9.186;2023-07-09T10:34:34;34.50;33.20
810;DHT22;387;48.772;9.186;2023-07-09T10:39:46;34.90;31.30
810;DHT22;387;48.772;9.186;2023-07-09T10:42:30;35.30;30.80
810;DHT22;387;48.772;9.186;2023-07-09T10:45:09;35.10;30.80
810;DHT22;387;48.772;9.186;2023-07-09T10:47:38;35.20;31.30
810;DHT22;387;48.772;9.186;2023-07-09T10:50:12;35.40;29.90
810;DHT22;387;48.772;9.186;2023-07-09T10:52:42;35.30;28.80
810;DHT22;387;48.772;9.186;2023-07-09T10:55:17;35.10;29.10
810;DHT22;387;48.772;9.186;2023-07-09T10:58:00;35.20;29.30
810;DHT22;387;48.772;9.186;2023-07-09T11:00:37;35.50;28.40
810;DHT22;387;48.772;9.186;2023-07-09T11:03:19;35.50;27.70
810;DHT22;387;48.772;9.186;2023-07-09T11:05:46;35.50;28.30
810;DHT22;387;48.772;9.186;2023-07-09T11:08:20;35.30;28.80
810;DHT22;387;48.772;9.186;2023-07-09T11:10:52;34.90;29.40
810;DHT22;387;48.772;9.186;2023-07-09T11:15:59;35.10;29.50
810;DHT22;387;48.772;9.186;2023-07-09T11:18:33;35.40;29.20
810;DHT22;387;48.772;9.186;2023-07-09T11:23:35;35.70;28.40
810;DHT22;387;48.772;9.186;2023-07-09T11:26:26;35.90;27.50
810;DHT22;387;48.772;9.186;2023-07-09T11:29:08;36.20;25.10
810;DHT22;387;48.772;9.186;2023-07-09T11:31:42;36.20;24.70
810;DHT22;387;48.772;9.186;2023-07-09T11:34:17;35.20;26.10
810;DHT22;387;48.772;9.186;2023-07-09T11:42:01;36.20;25.70
810;DHT22;387;48.772;9.186;2023-07-09T11:44:33;36.50;26.30
810;DHT22;387;48.772;9.186;2023-07-09T11:49:52;36.40;27.40
810;DHT22;387;48.772;9.186;2023-07-09T11:52:41;36.70;27.00
810;DHT22;387;48.772;9.186;2023-07-09T11:55:29;36.90;26.90
810;DHT22;387;48.772;9.186;2023-07-09T11:57:59;36.70;27.70
810;DHT22;387;48.772;9.186;2023-07-09T12:00:28;36.90;27.40
810;DHT22;387;48.772;9.186;2023-07-09T12:02:55;37.20;27.40
810;DHT22;387;48.772;9.186;2023-07-09T12:05:26;37.50;26.40
810;DHT22;387;48.772;9.186;2023-07-09T12:07:52;37.30;23.80
810;DHT22;387;48.772;9.186;2023-07-09T12:10:23;37.20;24.10
810;DHT22;387;48.772;9.186;2023-07-09T12:12:56;37.10;24.20
810;DHT22;387;48.772;9.186;2023-07-09T12:15:28;37.20;24.80
810;DHT22;387;48.772;9.186;2023-07-09T12:17:58;36.80;25.50
810;DHT22;387;48.772;9.186;2023-07-09T12:20:26;36.70;24.90
810;DHT22;387;48.772;9.186;2023-07-09T12:22:54;36.60;24.70
810;DHT22;387;48.772;9.186;2023-07-09T12:25:31;36.60;24.80
810;DHT22;387;48.772;9.186;2023-07-09T12:27:58;36.90;24.50
810;DHT22;387;48.772;9.186;2023-07-09T12:30:24;37.40;23.70
810;DHT22;387;48.772;9.186;2023-07-09T12:32:51;37.50;24.20
810;DHT22;387;48.772;9.186;2023-07-09T12:35:19;37.80;24.50
810;DHT22;387;48.772;9.186;2023-07-09T12:37:47;37.80;24.10
810;DHT22;387;48.772;9.186;2023-07-09T12:40:21;37.90;24.10
810;DHT22;387;48.772;9.186;2023-07-09T12:42:47;37.60;24.00
810;DHT22;387;48.772;9.186;2023-07-09T12:45:19;36.90;24.70
810;DHT22;387;48.772;9.186;2023-07-09T12:47:47;36.40;25.60
810;DHT22;387;48.772;9.186;2023-07-09T12:50:49;35.90;25.90
810;DHT22;387;48.772;9.186;2023-07-09T12:53:19;36.10;26.00
810;DHT22;387;48.772;9.186;2023-07-09T12:55:49;36.00;26.00
810;DHT22;387;48.772;9.186;2023-07-09T12:58:21;36.80;25.90
810;DHT22;387;48.772;9.186;2023-07-09T13:00:51;37.20;24.50
810;DHT22;387;48.772;9.186;2023-07-09T13:03:25;37.10;24.90
810;DHT22;387;48.772;9.186;2023-07-09T13:06:06;37.40;25.20
810;DHT22;387;48.772;9.186;2023-07-09T13:08:41;37.60;25.50
810;DHT22;387;48.772;9.186;2023-07-09T13:11:18;37.60;25.50
810;DHT22;387;48.772;9.186;2023-07-09T13:13:57;37.90;24.90
810;DHT22;387;48.772;9.186;2023-07-09T13:16:23;38.40;24.70
810;DHT22;387;48.772;9.186;2023-07-09T13:18:49;39.00;23.70
810;DHT22;387;48.772;9.186;2023-07-09T13:21:19;39.00;23.30
810;DHT22;387;48.772;9.186;2023-07-09T13:23:45;39.10;22.70
810;DHT22;387;48.772;9.186;2023-07-09T13:26:15;39.20;22.60
810;DHT22;387;48.772;9.186;2023-07-09T13:28:42;39.20;22.80
810;DHT22;387;48.772;9.186;2023-07-09T13:31:15;39.50;22.70
810;DHT22;387;48.772;9.186;2023-07-09T13:33:50;40.00;22.70
810;DHT22;387;48.772;9.186;2023-07-09T13:36:15;40.00;22.10
810;DHT22;387;48.772;9.186;2023-07-09T13:38:41;39.30;21.80
810;DHT22;387;48.772;9.186;2023-07-09T13:41:13;38.70;21.70
810;DHT22;387;48.772;9.186;2023-07-09T13:43:42;38.80;22.00
810;DHT22;387;48.772;9.186;2023-07-09T13:46:09;38.10;23.20
810;DHT22;387;48.772;9.186;2023-07-09T13:48:37;38.50;23.60
810;DHT22;387;48.772;9.186;2023-07-09T13:51:15;39.00;23.40
810;DHT22;387;48.772;9.186;2023-07-09T13:53:41;39.20;24.00
810;DHT22;387;48.772;9.186;2023-07-09T13:56:07;39.10;24.20
810;DHT22;387;48.772;9.186;2023-07-09T13:58:32;39.40;24.10
810;DHT22;387;48.772;9.186;2023-07-09T14:00:59;39.40;24.10
810;DHT22;387;48.772;9.186;2023-07-09T14:03:31;38.40;25.00
810;DHT22;387;48.772;9.186;2023-07-09T14:05:57;38.90;24.40
810;DHT22;387;48.772;9.186;2023-07-09T14:08:22;39.40;24.10
810;DHT22;387;48.772;9.186;2023-07-09T14:10:49;39.60;23.60
810;DHT22;387;48.772;9.186;2023-07-09T14:13:18;39.60;23.80
810;DHT22;387;48.772;9.186;2023-07-09T14:15:44;38.90;24.50
810;DHT22;387;48.772;9.186;2023-07-09T14:18:18;39.20;24.40
810;DHT22;387;48.772;9.186;2023-07-09T14:20:45;39.10;24.50
810;DHT22;387;48.772;9.186;2023-07-09T14:23:12;39.80;24.20
810;DHT22;387;48.772;9.186;2023-07-09T14:25:38;40.00;23.70
810;DHT22;387;48.772;9.186;2023-07-09T14:28:19;39.90;24.20
810;DHT22;387;48.772;9.186;2023-07-09T14:30:46;39.80;24.10
810;DHT22;387;48.772;9.186;2023-07-09T14:33:18;39.50;24.60
810;DHT22;387;48.772;9.186;2023-07-09T14:35:45;39.90;24.50
810;DHT22;387;48.772;9.186;2023-07-09T14:38:23;39.80;23.60
810;DHT22;387;48.772;9.186;2023-07-09T14:40:52;39.70;24.10
810;DHT22;387;48.772;9.186;2023-07-09T14:43:18;40.20;23.80
810;DHT22;387;48.772;9.186;2023-07-09T14:45:44;40.00;23.40
810;DHT22;387;48.772;9.186;2023-07-09T14:48:15;40.30;23.50
810;DHT22;387;48.772;9.186;2023-07-09T14:50:41;40.70;22.60
810;DHT22;387;48.772;9.186;2023-07-09T14:53:16;40.50;22.90
810;DHT22;387;48.772;9.186;2023-07-09T14:55:42;40.70;22.70
810;DHT22;387;48.772;9.186;2023-07-09T14:58:18;41.20;22.30
810;DHT22;387;48.772;9.186;2023-07-09T15:00:44;41.20;22.20
810;DHT22;387;48.772;9.186;2023-07-09T15:03:21;41.10;22.50
810;DHT22;387;48.772;9.186;2023-07-09T15:05:47;41.30;22.30
810;DHT22;387;48.772;9.186;2023-07-09T15:08:15;41.60;21.80
810;DHT22;387;48.772;9.186;2023-07-09T15:10:41;42.20;21.50
810;DHT22;387;48.772;9.186;2023-07-09T15:15:45;42.70;21.10
810;DHT22;387;48.772;9.186;2023-07-09T15:18:13;42.40;20.70
810;DHT22;387;48.772;9.186;2023-07-09T15:23:10;41.20;21.80
810;DHT22;387;48.772;9.186;2023-07-09T15:25:36;40.90;22.00
810;DHT22;387;48.772;9.186;2023-07-09T15:28:01;40.80;22.10
810;DHT22;387;48.772;9.186;2023-07-09T15:30:29;40.60;22.30
810;DHT22;387;48.772;9.186;2023-07-09T15:32:59;40.40;22.70
810;DHT22;387;48.772;9.186;2023-07-09T15:35:31;40.20;23.00
810;DHT22;387;48.772;9.186;2023-07-09T15:37:56;40.00;23.30
810;DHT22;387;48.772;9.186;2023-07-09T15:40:25;39.60;23.40
810;DHT22;387;48.772;9.186;2023-07-09T15:42:56;39.30;23.50
810;DHT22;387;48.772;9.186;2023-07-09T15:45:22;39.20;23.60
810;DHT22;387;48.772;9.186;2023-07-09T15:47:50;39.00;23.80
810;DHT22;387;48.772;9.186;2023-07-09T15:50:27;38.90;23.70
810;DHT22;387;48.772;9.186;2023-07-09T15:52:54;39.10;23.80
810;DHT22;387;48.772;9.186;2023-07-09T15:55:27;38.80;23.60
810;DHT22;387;48.772;9.186;2023-07-09T15:57:54;38.70;24.10
810;DHT22;387;48.772;9.186;2023-07-09T16:00:26;38.50;24.00
810;DHT22;387;48.772;9.186;2023-07-09T16:02:54;38.20;24.20
810;DHT22;387;48.772;9.186;2023-07-09T16:05:21;38.30;24.30
810;DHT22;387;48.772;9.186;2023-07-09T16:07:50;37.80;24.90
810;DHT22;387;48.772;9.186;2023-07-09T16:10:16;37.80;24.90
810;DHT22;387;48.772;9.186;2023-07-09T16:12:42;37.80;24.80
810;DHT22;387;48.772;9.186;2023-07-09T16:15:11;37.80;25.10
810;DHT22;387;48.772;9.186;2023-07-09T16:17:38;37.70;25.00
810;DHT22;387;48.772;9.186;2023-07-09T16:20:04;37.60;24.80
810;DHT22;387;48.772;9.186;2023-07-09T16:22:31;37.50;25.60
810;DHT22;387;48.772;9.186;2023-07-09T16:24:56;37.30;25.10
810;DHT22;387;48.772;9.186;2023-07-09T16:27:23;37.00;25.30
810;DHT22;387;48.772;9.186;2023-07-09T16:29:49;36.90;25.30
810;DHT22;387;48.772;9.186;2023-07-09T16:32:15;36.90;25.70
810;DHT22;387;48.772;9.186;2023-07-09T16:34:41;36.90;26.20
810;DHT22;387;48.772;9.186;2023-07-09T16:37:17;36.90;26.10
810;DHT22;387;48.772;9.186;2023-07-09T16:39:45;36.90;26.30
810;DHT22;387;48.772;9.186;2023-07-09T16:42:13;36.90;26.50
810;DHT22;387;48.772;9.186;2023-07-09T16:44:39;36.90;26.80
810;DHT22;387;48.772;9.186;2023-07-09T16:47:17;36.90;26.80
810;DHT22;387;48.772;9.186;2023-07-09T16:49:43;36.80;26.60
810;DHT22;387;48.772;9.186;2023-07-09T16:52:15;36.80;26.60
810;DHT22;387;48.772;9.186;2023-07-09T16:54:41;36.70;26.80
810;DHT22;387;48.772;9.186;2023-07-09T16:57:24;36.60;27.20
810;DHT22;387;48.772;9.186;2023-07-09T16:59:53;36.70;26.50
810;DHT22;387;48.772;9.186;2023-07-09T17:02:25;36.60;26.80
810;DHT22;387;48.772;9.186;2023-07-09T17:04:56;36.50;27.80
810;DHT22;387;48.772;9.186;2023-07-09T17:07:22;36.50;27.00
810;DHT22;387;48.772;9.186;2023-07-09T17:09:48;36.50;27.70
810;DHT22;387;48.772;9.186;2023-07-09T17:12:15;36.50;28.30
810;DHT22;387;48.772;9.186;2023-07-09T17:14:42;36.50;29.10
810;DHT22;387;48.772;9.186;2023-07-09T17:17:19;36.50;28.90
810;DHT22;387;48.772;9.186;2023-07-09T17:19:46;36.40;29.40
810;DHT22;387;48.772;9.186;2023-07-09T17:24:46;36.20;28.80
810;DHT22;387;48.772;9.186;2023-07-09T17:27:12;36.30;29.10
810;DHT22;387;48.772;9.186;2023-07-09T17:29:42;36.60;28.90